Time;durP1;ratioP1;P1;durP2;ratioP2;P2;SDS_P1;SDS_P2;PMS_P1;PMS_P2;Temp;Humidity;BMP_temperature;BMP_pressure;BME280_temperature;BME280_humidity;BME280_pressure;Samples;Min_cycle;Max_cycle;Signal;HPM_P1;HPM_P2
2021/12/12 00:01:19;;;;;;;61.35;34.22;;;0.90;99.90;;;;;;5024706;28;20201;-52
2021/12/12 00:03:52;;;;;;;51.08;32.95;;;0.90;99.90;;;;;;5018564;28;20197;-54
2021/12/12 00:06:32;;;;;;;66.03;34.47;;;0.90;99.90;;;;;;5022323;28;20227;-54
2021/12/12 00:09:22;;;;;;;51.20;32.00;;;0.90;99.90;;;;;;5021694;28;20441;-53
2021/12/12 00:11:50;;;;;;;52.33;31.35;;;0.90;99.90;;;;;;5021600;28;20221;-54
2021/12/12 00:14:22;;;;;;;51.28;32.38;;;0.90;99.90;;;;;;5022887;28;20224;-53
2021/12/12 00:16:51;;;;;;;55.85;32.05;;;0.70;99.90;;;;;;5022087;28;20201;-53
2021/12/12 00:19:21;;;;;;;55.67;30.92;;;0.70;99.90;;;;;;5021729;28;20243;-51
2021/12/12 00:21:53;;;;;;;54.55;32.05;;;0.80;99.90;;;;;;5021280;28;20224;-52
2021/12/12 00:24:21;;;;;;;53.53;31.85;;;0.70;99.90;;;;;;5022370;28;20197;-50
2021/12/12 00:26:51;;;;;;;41.78;27.77;;;0.50;99.90;;;;;;5021477;28;20200;-54
2021/12/12 00:29:21;;;;;;;46.70;31.33;;;0.30;99.90;;;;;;5021754;28;20197;-52
2021/12/12 00:31:51;;;;;;;54.00;30.83;;;0.20;99.90;;;;;;5021096;28;20271;-56
2021/12/12 00:34:19;;;;;;;54.45;30.35;;;0.10;99.90;;;;;;5021390;28;20197;-53
2021/12/12 00:36:46;;;;;;;49.40;28.23;;;0.10;99.90;;;;;;5021183;28;20255;-57
2021/12/12 00:39:21;;;;;;;55.95;31.90;;;0.10;99.90;;;;;;5020807;28;20325;-51
2021/12/12 00:41:53;;;;;;;54.03;30.30;;;0.10;99.90;;;;;;5020605;28;20228;-53
2021/12/12 00:44:21;;;;;;;49.22;31.75;;;0.10;99.90;;;;;;5020940;28;20435;-52
2021/12/12 00:46:49;;;;;;;56.00;33.08;;;0.00;99.90;;;;;;5020762;28;20236;-52
2021/12/12 00:49:18;;;;;;;50.95;30.92;;;0.00;99.90;;;;;;5020971;28;20207;-54
2021/12/12 00:51:45;;;;;;;53.50;32.50;;;-0.10;99.90;;;;;;5020619;28;20221;-51
2021/12/12 00:54:15;;;;;;;53.72;31.90;;;-0.30;99.90;;;;;;5021181;28;20554;-50
2021/12/12 00:56:44;;;;;;;56.53;35.75;;;-0.40;99.90;;;;;;5020261;28;20243;-51
2021/12/12 00:59:13;;;;;;;51.03;31.27;;;-0.40;99.90;;;;;;5020898;28;20225;-55
2021/12/12 01:01:45;;;;;;;57.13;33.42;;;-0.50;99.90;;;;;;5014333;28;20318;-51
2021/12/12 01:04:21;;;;;;;49.85;31.83;;;-0.70;99.90;;;;;;5009510;28;20201;-55
2021/12/12 01:06:50;;;;;;;57.88;34.97;;;-0.70;99.90;;;;;;5000628;28;20313;-55
2021/12/12 01:09:23;;;;;;;61.10;34.50;;;-0.70;99.90;;;;;;5001243;28;20524;-51
2021/12/12 01:11:55;;;;;;;63.80;38.45;;;-0.80;99.90;;;;;;5000711;28;20276;-52
2021/12/12 01:14:28;;;;;;;62.40;39.10;;;-0.80;99.90;;;;;;5001414;28;20264;-52
2021/12/12 01:17:08;;;;;;;57.00;34.78;;;-0.80;99.90;;;;;;5000492;28;20206;-53
2021/12/12 01:19:44;;;;;;;59.75;37.13;;;-0.80;99.90;;;;;;5001296;28;20508;-52
2021/12/12 01:22:21;;;;;;;59.78;38.10;;;-1.10;99.90;;;;;;5000562;28;20540;-50
2021/12/12 01:24:51;;;;;;;57.63;37.75;;;-1.30;99.90;;;;;;5000573;28;20197;-52
2021/12/12 01:27:19;;;;;;;58.00;35.60;;;-1.50;99.90;;;;;;5004094;28;20224;-55
2021/12/12 01:29:49;;;;;;;57.60;37.33;;;-1.50;99.90;;;;;;5020226;28;20201;-52
2021/12/12 01:32:29;;;;;;;71.00;38.28;;;-1.50;99.90;;;;;;5020319;28;20225;-55
2021/12/12 01:34:58;;;;;;;65.93;40.35;;;-1.50;99.90;;;;;;5020307;28;20395;-52
2021/12/12 01:40:15;;;;;;;64.13;40.45;;;-1.70;99.90;;;;;;5022795;28;20193;-52
2021/12/12 01:43:00;;;;;;;71.22;43.67;;;-1.50;99.90;;;;;;5020003;28;20217;-50
2021/12/12 01:45:32;;;;;;;61.92;41.42;;;-1.50;99.90;;;;;;5019918;28;20197;-50
2021/12/12 01:48:15;;;;;;;69.93;41.40;;;-1.40;99.90;;;;;;5021708;28;20201;-56
2021/12/12 01:50:55;;;;;;;60.53;42.05;;;-1.40;99.90;;;;;;5022415;28;20197;-55
2021/12/12 01:53:27;;;;;;;70.60;46.28;;;-1.30;99.90;;;;;;5020597;28;20200;-52
2021/12/12 01:56:00;;;;;;;62.00;40.28;;;-1.40;99.90;;;;;;5014937;28;20392;-55
2021/12/12 01:58:30;;;;;;;78.90;44.75;;;-1.30;99.90;;;;;;5000133;28;20237;-51
2021/12/12 02:01:06;;;;;;;83.22;43.15;;;-1.30;99.90;;;;;;4999624;28;20213;-53
2021/12/12 02:03:37;;;;;;;81.07;43.15;;;-1.40;99.90;;;;;;5000777;28;20227;-52
2021/12/12 02:06:08;;;;;;;73.38;46.40;;;-1.50;99.90;;;;;;4999718;28;20206;-53
2021/12/12 02:08:37;;;;;;;83.28;47.63;;;-1.50;99.90;;;;;;5014341;28;20271;-53
2021/12/12 02:11:09;;;;;;;69.53;41.75;;;-1.40;99.90;;;;;;5020337;28;20499;-50
2021/12/12 02:13:41;;;;;;;97.47;49.53;;;-1.40;99.90;;;;;;5020052;28;20239;-53
2021/12/12 02:16:10;;;;;;;76.68;42.75;;;-1.40;99.90;;;;;;5020248;28;20357;-50
2021/12/12 02:18:43;;;;;;;80.07;50.60;;;-1.30;99.90;;;;;;5019685;28;20407;-57
2021/12/12 02:21:23;;;;;;;84.03;47.33;;;-1.50;99.90;;;;;;5022211;28;20263;-51
2021/12/12 02:37:31;;;;;;;89.65;48.08;;;-1.50;99.90;;;;;;5023643;28;20204;-54
2021/12/12 02:40:05;;;;;;;77.97;48.88;;;-1.60;99.90;;;;;;5023420;28;20464;-51
2021/12/12 02:42:33;;;;;;;93.75;48.05;;;-1.50;99.90;;;;;;5023220;28;20217;-53
2021/12/12 02:45:03;;;;;;;77.47;47.03;;;-1.60;99.90;;;;;;5023476;28;20235;-53
2021/12/12 02:47:34;;;;;;;105.03;52.10;;;-1.70;99.90;;;;;;5022955;28;20228;-53
2021/12/12 02:50:13;;;;;;;84.75;49.28;;;-1.90;99.90;;;;;;5023448;28;20277;-51
2021/12/12 02:52:47;;;;;;;77.72;47.03;;;-2.00;99.90;;;;;;5023193;28;20217;-50
2021/12/12 02:55:24;;;;;;;101.38;53.78;;;-1.70;99.90;;;;;;5023495;28;20185;-52
2021/12/12 02:57:53;;;;;;;93.85;48.67;;;-1.80;99.90;;;;;;5022752;28;20271;-48
2021/12/12 03:00:28;;;;;;;88.43;48.63;;;-1.90;99.90;;;;;;5022029;28;20197;-52
2021/12/12 03:03:00;;;;;;;69.45;45.47;;;-1.90;99.90;;;;;;5023041;28;20255;-53
2021/12/12 03:05:31;;;;;;;85.00;50.05;;;-1.80;99.90;;;;;;5022913;28;20220;-52
2021/12/12 03:07:58;;;;;;;86.28;47.83;;;-1.80;99.90;;;;;;5022956;28;20239;-51
2021/12/12 03:10:35;;;;;;;90.10;50.80;;;-1.70;99.90;;;;;;5023131;28;20348;-50
2021/12/12 03:13:04;;;;;;;83.88;48.17;;;-2.00;99.90;;;;;;5022939;28;20401;-51
2021/12/12 03:15:38;;;;;;;91.15;52.05;;;-1.90;99.90;;;;;;5023017;28;20212;-48
2021/12/12 03:18:10;;;;;;;95.13;52.30;;;-2.00;99.90;;;;;;5024120;28;20538;-51
2021/12/12 03:20:44;;;;;;;88.85;49.80;;;-2.00;99.90;;;;;;5022906;28;20201;-51
2021/12/12 03:23:27;;;;;;;78.22;46.08;;;-2.10;99.90;;;;;;5022553;28;20216;-52
2021/12/12 03:26:08;;;;;;;83.28;47.35;;;-2.40;99.90;;;;;;5022215;28;20197;-50
2021/12/12 03:28:39;;;;;;;89.78;46.58;;;-2.40;99.90;;;;;;5022879;28;20201;-54
2021/12/12 03:31:13;;;;;;;89.07;49.50;;;-2.60;99.90;;;;;;5021598;28;20307;-56
2021/12/12 03:33:41;;;;;;;81.18;47.60;;;-2.70;99.90;;;;;;5022035;28;20201;-50
2021/12/12 03:36:11;;;;;;;81.78;45.17;;;-2.70;99.90;;;;;;5021938;28;20204;-49
2021/12/12 03:38:43;;;;;;;90.72;51.15;;;-2.80;99.90;;;;;;5022427;28;20560;-52
2021/12/12 03:41:16;;;;;;;86.57;42.83;;;-2.70;99.90;;;;;;5022098;28;20216;-50
2021/12/12 03:43:48;;;;;;;95.63;47.25;;;-2.60;99.90;;;;;;5021845;28;20252;-51
2021/12/12 03:46:16;;;;;;;96.55;44.67;;;-2.60;99.90;;;;;;5022148;28;20201;-51
2021/12/12 03:48:44;;;;;;;101.75;43.05;;;-2.40;99.90;;;;;;5022207;28;20209;-51
2021/12/12 03:51:17;;;;;;;103.43;44.97;;;-2.30;99.90;;;;;;5022122;28;20220;-49
2021/12/12 03:53:45;;;;;;;83.03;41.78;;;-2.20;99.90;;;;;;5022300;28;20243;-55
2021/12/12 03:56:15;;;;;;;92.53;43.67;;;-2.10;99.90;;;;;;5021817;28;20256;-50
2021/12/12 03:58:43;;;;;;;89.47;43.72;;;-2.00;99.90;;;;;;5021873;28;20225;-52
2021/12/12 04:01:20;;;;;;;85.47;42.28;;;-1.90;99.90;;;;;;5021884;28;20435;-49
2021/12/12 04:03:53;;;;;;;83.65;38.58;;;-1.80;99.90;;;;;;5021514;28;20196;-52
2021/12/12 04:06:26;;;;;;;77.57;38.00;;;-1.70;99.90;;;;;;5021833;28;20213;-49
2021/12/12 04:08:54;;;;;;;96.32;42.58;;;-1.70;99.90;;;;;;5021274;28;20201;-50
2021/12/12 04:11:43;;;;;;;88.13;36.83;;;-1.60;99.90;;;;;;5021674;28;20221;-47
2021/12/12 04:14:12;;;;;;;85.13;38.63;;;-1.80;99.90;;;;;;5021672;28;20316;-50
2021/12/12 04:16:44;;;;;;;83.68;40.83;;;-1.80;99.90;;;;;;5021733;28;20205;-53
2021/12/12 04:19:11;;;;;;;69.80;35.92;;;-1.90;99.90;;;;;;5021369;28;20446;-47
2021/12/12 04:21:40;;;;;;;88.47;39.22;;;-1.90;99.90;;;;;;5021751;28;20252;-50
2021/12/12 04:24:09;;;;;;;85.88;38.92;;;-1.60;99.90;;;;;;5022491;28;20423;-50
2021/12/12 04:26:40;;;;;;;84.53;38.70;;;-1.50;99.90;;;;;;5020732;28;20197;-50
2021/12/12 04:29:25;;;;;;;83.05;39.67;;;-1.40;99.90;;;;;;5025397;28;20255;-50
2021/12/12 04:31:57;;;;;;;79.80;38.60;;;-1.40;99.90;;;;;;5025352;28;20466;-53
2021/12/12 04:34:26;;;;;;;63.00;33.58;;;-1.30;99.90;;;;;;5025024;28;20443;-53
2021/12/12 04:36:55;;;;;;;75.55;37.65;;;-1.40;99.90;;;;;;5026602;28;20201;-49
2021/12/12 04:39:26;;;;;;;58.80;29.35;;;-1.30;99.90;;;;;;5026096;28;20225;-53
2021/12/12 04:42:02;;;;;;;80.43;37.13;;;-1.40;99.90;;;;;;5022340;28;20217;-48
2021/12/12 04:44:34;;;;;;;83.32;35.63;;;-1.40;99.90;;;;;;5021300;28;20242;-50
2021/12/12 04:50:47;;;;;;;75.25;34.78;;;-1.30;99.90;;;;;;5026754;28;20213;-52
2021/12/12 04:53:23;;;;;;;67.85;37.95;;;-1.30;99.90;;;;;;5025585;28;20205;-53
2021/12/12 04:56:11;;;;;;;80.60;38.55;;;-1.40;99.90;;;;;;5024614;28;20208;-55
2021/12/12 04:58:44;;;;;;;74.35;35.22;;;-1.50;99.90;;;;;;5022563;28;20265;-52
2021/12/12 05:01:25;;;;;;;78.68;33.30;;;-1.80;99.90;;;;;;5021382;28;20415;-51
2021/12/12 05:04:02;;;;;;;70.70;31.50;;;-1.60;99.90;;;;;;5021308;28;20220;-52
2021/12/12 05:06:55;;;;;;;52.22;27.05;;;-1.60;99.90;;;;;;5020895;28;20516;-51
2021/12/12 05:09:46;;;;;;;54.15;27.67;;;-1.70;99.90;;;;;;5021175;28;20216;-54
2021/12/12 05:12:37;;;;;;;59.22;29.40;;;-1.70;99.90;;;;;;5021052;28;20267;-50
2021/12/12 05:15:22;;;;;;;61.15;30.85;;;-1.80;99.90;;;;;;5021060;28;20436;-51
2021/12/12 05:17:58;;;;;;;71.07;31.95;;;-1.70;99.90;;;;;;5021617;28;20200;-50
2021/12/12 05:20:30;;;;;;;67.55;29.77;;;-1.60;99.90;;;;;;5020878;28;20263;-52
2021/12/12 05:23:01;;;;;;;68.97;35.08;;;-1.60;99.90;;;;;;5020632;28;20263;-51
2021/12/12 05:25:43;;;;;;;59.28;34.17;;;-1.70;99.90;;;;;;5020294;28;20482;-50
2021/12/12 05:28:11;;;;;;;68.47;33.97;;;-1.60;99.90;;;;;;5020537;28;20197;-51
2021/12/12 05:30:39;;;;;;;68.68;35.92;;;-1.70;99.90;;;;;;5022958;28;20208;-48
2021/12/12 05:33:07;;;;;;;65.07;32.60;;;-1.90;99.90;;;;;;5022369;28;20251;-52
2021/12/12 05:35:39;;;;;;;61.22;33.95;;;-1.70;99.90;;;;;;5022452;28;20208;-53
2021/12/12 05:38:08;;;;;;;86.90;37.20;;;-2.00;99.90;;;;;;5022676;28;20197;-56
2021/12/12 05:40:43;;;;;;;79.00;34.15;;;-1.80;99.90;;;;;;5023842;28;20235;-53
2021/12/12 05:43:13;;;;;;;58.83;32.03;;;-1.60;99.90;;;;;;5022910;28;20433;-53
2021/12/12 05:45:40;;;;;;;68.40;35.47;;;-1.80;99.90;;;;;;5022122;28;20491;-49
2021/12/12 05:48:09;;;;;;;66.50;31.05;;;-2.20;99.90;;;;;;5019892;28;20200;-49
2021/12/12 05:50:37;;;;;;;68.00;32.00;;;-2.40;99.90;;;;;;5020289;28;20205;-50
2021/12/12 05:53:05;;;;;;;81.00;38.30;;;-2.30;99.90;;;;;;5020101;28;20555;-50
2021/12/12 05:55:35;;;;;;;85.68;37.03;;;-2.20;99.90;;;;;;5019093;28;20193;-52
2021/12/12 05:58:07;;;;;;;68.75;32.90;;;-2.20;99.90;;;;;;5019884;28;20259;-53
2021/12/12 06:00:44;;;;;;;65.50;35.05;;;-2.30;99.90;;;;;;5019565;28;20271;-54
2021/12/12 06:03:14;;;;;;;96.22;39.25;;;-2.60;99.90;;;;;;5020067;28;20216;-52
2021/12/12 06:05:42;;;;;;;62.42;32.20;;;-2.60;99.90;;;;;;5019403;28;20205;-54
2021/12/12 06:08:13;;;;;;;68.50;31.77;;;-2.50;99.90;;;;;;5019804;28;20459;-51
2021/12/12 06:10:43;;;;;;;77.60;35.47;;;-2.40;99.90;;;;;;5019467;28;20208;-49
2021/12/12 06:13:14;;;;;;;81.05;37.80;;;-2.40;99.90;;;;;;5019952;28;20220;-49
2021/12/12 06:15:43;;;;;;;70.85;35.83;;;-2.20;99.90;;;;;;5019522;28;20233;-55
2021/12/12 06:18:12;;;;;;;78.97;36.25;;;-2.10;99.90;;;;;;5020091;28;20410;-50
2021/12/12 06:20:44;;;;;;;81.10;35.00;;;-1.90;99.90;;;;;;5019795;28;20295;-51
2021/12/12 06:23:13;;;;;;;78.68;37.53;;;-2.00;99.90;;;;;;5019747;28;20265;-50
2021/12/12 06:25:42;;;;;;;70.38;34.78;;;-1.90;99.90;;;;;;5020060;28;20384;-51
2021/12/12 06:28:15;;;;;;;69.65;34.50;;;-2.00;99.90;;;;;;5019787;28;20237;-49
2021/12/12 06:30:43;;;;;;;69.30;39.33;;;-2.00;99.90;;;;;;5019799;28;20209;-50
2021/12/12 06:33:11;;;;;;;61.33;36.90;;;-2.00;99.90;;;;;;5024109;28;20228;-52
2021/12/12 06:35:38;;;;;;;67.03;34.95;;;-2.00;99.90;;;;;;5028386;28;20247;-50
2021/12/12 06:38:08;;;;;;;81.15;40.72;;;-2.10;99.90;;;;;;5020078;28;20570;-50
2021/12/12 06:40:36;;;;;;;78.88;38.78;;;-2.30;99.90;;;;;;5020135;28;20228;-53
2021/12/12 06:43:07;;;;;;;68.28;39.45;;;-2.40;99.90;;;;;;5019354;28;20448;-50
2021/12/12 06:45:36;;;;;;;72.78;38.45;;;-2.40;99.90;;;;;;5019873;28;20243;-50
2021/12/12 06:48:09;;;;;;;73.50;39.80;;;-2.40;99.90;;;;;;5019243;28;20554;-50
2021/12/12 06:50:40;;;;;;;73.20;41.85;;;-2.40;99.90;;;;;;5019994;28;20239;-50
2021/12/12 06:53:12;;;;;;;63.20;37.05;;;-2.50;99.90;;;;;;5020639;28;20292;-51
2021/12/12 06:55:43;;;;;;;77.32;42.67;;;-2.40;99.90;;;;;;5020058;28;20542;-50
2021/12/12 06:58:13;;;;;;;77.00;41.33;;;-2.40;99.90;;;;;;5019699;28;20209;-48
2021/12/12 07:00:42;;;;;;;79.28;40.08;;;-2.30;99.90;;;;;;5019205;28;20267;-53
2021/12/12 07:03:13;;;;;;;76.18;39.13;;;-2.30;99.90;;;;;;5019834;28;20272;-52
2021/12/12 07:05:41;;;;;;;67.93;37.08;;;-2.30;99.90;;;;;;5019719;28;20236;-53
2021/12/12 07:08:08;;;;;;;77.40;40.58;;;-2.30;99.90;;;;;;5023157;28;20197;-52
2021/12/12 07:10:42;;;;;;;73.40;37.60;;;-2.30;99.90;;;;;;5021939;28;20189;-54
2021/12/12 07:13:10;;;;;;;74.70;38.72;;;-2.30;99.90;;;;;;5022233;28;20236;-50
2021/12/12 07:15:42;;;;;;;80.22;40.40;;;-2.20;99.90;;;;;;5020657;28;20213;-53
2021/12/12 07:18:14;;;;;;;82.05;41.03;;;-2.40;99.90;;;;;;5021840;28;20392;-54
2021/12/12 07:20:46;;;;;;;72.57;39.50;;;-2.40;99.90;;;;;;5016794;28;20221;-55
2021/12/12 07:23:14;;;;;;;83.05;45.33;;;-2.40;99.90;;;;;;5023179;28;20189;-52
2021/12/12 07:25:43;;;;;;;81.88;41.25;;;-2.60;99.90;;;;;;5024113;28;20526;-51
2021/12/12 07:28:11;;;;;;;94.15;43.03;;;-2.70;99.90;;;;;;5021934;28;20201;-50
2021/12/12 07:30:39;;;;;;;73.63;42.97;;;-2.50;99.90;;;;;;5023176;28;20217;-52
2021/12/12 07:33:07;;;;;;;76.78;43.40;;;-2.50;99.90;;;;;;5014921;28;20220;-54
2021/12/12 07:35:39;;;;;;;73.18;43.25;;;-2.50;99.90;;;;;;5023165;28;20201;-52
2021/12/12 07:38:08;;;;;;;70.75;45.13;;;-2.60;99.90;;;;;;5022552;28;20224;-48
2021/12/12 07:40:36;;;;;;;70.57;41.42;;;-2.70;99.90;;;;;;5023267;28;20268;-51
2021/12/12 07:43:05;;;;;;;73.95;44.53;;;-2.70;99.90;;;;;;5022242;28;20275;-53
2021/12/12 07:45:34;;;;;;;75.85;42.92;;;-2.60;99.90;;;;;;5009507;28;20437;-52
2021/12/12 07:48:06;;;;;;;73.70;40.72;;;-2.70;99.90;;;;;;5010514;28;20201;-54
2021/12/12 07:50:33;;;;;;;78.20;44.17;;;-2.70;99.90;;;;;;5015283;28;20209;-50
2021/12/12 07:53:03;;;;;;;68.35;39.42;;;-2.70;99.90;;;;;;5009576;28;20260;-54
2021/12/12 07:55:32;;;;;;;56.17;33.92;;;-2.70;99.90;;;;;;5010765;28;20202;-52
2021/12/12 07:57:59;;;;;;;69.07;37.72;;;-2.70;99.90;;;;;;5006626;28;20248;-51
2021/12/12 08:00:27;;;;;;;54.92;34.97;;;-2.80;99.90;;;;;;5007151;28;20222;-50
2021/12/12 08:02:55;;;;;;;63.28;35.25;;;-2.70;99.90;;;;;;5007311;28;20251;-51
2021/12/12 08:05:28;;;;;;;63.70;34.30;;;-2.90;99.90;;;;;;5007196;28;20271;-56
2021/12/12 08:08:01;;;;;;;58.50;34.38;;;-2.90;99.90;;;;;;5006300;28;20189;-53
2021/12/12 08:10:28;;;;;;;52.10;31.90;;;-2.90;99.90;;;;;;5007753;28;20256;-54
2021/12/12 08:12:56;;;;;;;54.67;30.80;;;-3.00;99.90;;;;;;5006981;28;20233;-50
2021/12/12 08:15:26;;;;;;;42.55;26.55;;;-3.10;99.90;;;;;;5007635;28;20324;-50
2021/12/12 08:17:54;;;;;;;39.92;26.23;;;-3.00;99.90;;;;;;4986699;28;20221;-51
2021/12/12 08:20:24;;;;;;;48.13;28.40;;;-3.10;99.90;;;;;;4990068;28;20241;-51
2021/12/12 08:22:52;;;;;;;47.55;28.30;;;-2.90;99.90;;;;;;4987441;28;20246;-51
2021/12/12 08:25:20;;;;;;;47.08;30.15;;;-2.70;99.90;;;;;;4989766;28;20513;-51
2021/12/12 08:27:48;;;;;;;43.80;25.85;;;-2.60;99.90;;;;;;4988336;28;20256;-50
2021/12/12 08:30:18;;;;;;;40.28;25.48;;;-2.60;99.90;;;;;;4986400;28;20214;-54
2021/12/12 08:32:48;;;;;;;41.92;27.73;;;-2.50;99.90;;;;;;4988751;28;20229;-54
2021/12/12 08:35:19;;;;;;;38.80;26.23;;;-2.50;99.90;;;;;;4986582;28;20206;-50
2021/12/12 08:37:47;;;;;;;41.42;25.98;;;-2.40;99.90;;;;;;4988116;28;20248;-53
2021/12/12 08:40:22;;;;;;;43.13;26.15;;;-2.20;99.90;;;;;;4984858;28;20285;-49
2021/12/12 08:42:51;;;;;;;49.63;28.20;;;-2.40;99.90;;;;;;4988157;28;20217;-53
2021/12/12 08:45:21;;;;;;;37.28;26.08;;;-2.30;99.90;;;;;;4988757;28;20545;-54
2021/12/12 08:47:51;;;;;;;40.70;28.63;;;-2.40;99.90;;;;;;4988216;28;20206;-52
2021/12/12 08:50:24;;;;;;;42.97;28.13;;;-2.40;99.90;;;;;;4984221;28;20278;-50
2021/12/12 08:52:53;;;;;;;45.60;28.10;;;-2.20;99.90;;;;;;4987982;28;20221;-50
2021/12/12 08:55:31;;;;;;;48.45;30.58;;;-1.90;99.90;;;;;;4989835;28;20195;-55
2021/12/12 08:58:13;;;;;;;45.63;31.77;;;-1.60;99.90;;;;;;4988068;28;20413;-52
2021/12/12 09:00:54;;;;;;;46.20;28.77;;;-1.70;99.90;;;;;;4996238;28;20271;-55
2021/12/12 09:03:59;;;;;;;46.78;29.45;;;-1.50;99.90;;;;;;4987000;28;20198;-54
2021/12/12 09:07:06;;;;;;;48.22;31.98;;;-1.40;99.90;;;;;;4988486;28;20250;-49
2021/12/12 09:09:41;;;;;;;47.78;30.23;;;-1.00;99.90;;;;;;4986494;28;20199;-50
2021/12/12 09:12:12;;;;;;;42.67;26.60;;;-0.90;99.90;;;;;;4986329;28;20261;-53
2021/12/12 09:15:18;;;;;;;51.60;32.03;;;-0.80;99.90;;;;;;4988149;28;20206;-51
2021/12/12 09:17:48;;;;;;;46.72;30.92;;;-0.70;99.90;;;;;;4983041;28;20202;-51
2021/12/12 09:20:47;;;;;;;43.35;27.60;;;-0.30;99.90;;;;;;4985958;28;20226;-52
2021/12/12 09:23:25;;;;;;;46.60;28.60;;;-0.10;99.90;;;;;;4986609;28;20202;-55
2021/12/12 09:26:15;;;;;;;48.80;31.45;;;0.00;99.90;;;;;;4987413;28;20274;-50
2021/12/12 09:28:57;;;;;;;46.10;31.13;;;0.00;99.90;;;;;;4986576;28;20198;-52
2021/12/12 09:31:40;;;;;;;46.72;31.27;;;-0.10;99.90;;;;;;4986888;28;20237;-53
2021/12/12 09:34:24;;;;;;;43.28;27.65;;;0.10;99.90;;;;;;4986638;28;20214;-56
2021/12/12 09:37:41;;;;;;;49.72;29.15;;;0.20;99.90;;;;;;4985510;28;20198;-51
2021/12/12 09:40:28;;;;;;;49.30;30.02;;;0.40;99.90;;;;;;4986445;28;20230;-49
2021/12/12 09:43:17;;;;;;;48.40;30.10;;;0.50;99.90;;;;;;4988291;28;20221;-50
2021/12/12 09:46:06;;;;;;;60.22;35.28;;;0.70;99.90;;;;;;4985779;28;20212;-54
2021/12/12 09:51:57;;;;;;;66.55;34.65;;;0.80;99.90;;;;;;4987211;28;20377;-50
2021/12/12 09:54:44;;;;;;;58.15;32.55;;;0.90;99.90;;;;;;4990470;28;20201;-50
2021/12/12 09:57:22;;;;;;;56.72;33.65;;;1.00;99.90;;;;;;4987517;28;20209;-52
2021/12/12 10:00:04;;;;;;;57.53;34.38;;;1.00;99.90;;;;;;4986554;28;20225;-51
2021/12/12 10:02:41;;;;;;;59.53;34.30;;;1.10;99.90;;;;;;4993257;28;20221;-51
2021/12/12 10:05:47;;;;;;;46.60;30.75;;;1.00;99.90;;;;;;4988337;28;20544;-52
2021/12/12 10:08:48;;;;;;;60.58;35.13;;;1.00;99.90;;;;;;4990983;28;20285;-53
2021/12/12 10:11:33;;;;;;;60.97;37.30;;;1.20;99.90;;;;;;4992694;28;20225;-55
2021/12/12 10:14:11;;;;;;;50.95;35.40;;;1.40;99.90;;;;;;4992463;28;20212;-52
2021/12/12 10:16:42;;;;;;;59.97;34.33;;;1.60;99.90;;;;;;4990251;28;20444;-50
2021/12/12 10:19:27;;;;;;;60.85;31.35;;;1.70;99.90;;;;;;4987622;28;20453;-51
2021/12/12 10:22:18;;;;;;;56.22;35.58;;;1.70;99.90;;;;;;4984186;28;20218;-51
2021/12/12 10:24:48;;;;;;;42.85;28.58;;;1.80;99.90;;;;;;4992689;28;20218;-52
2021/12/12 10:27:28;;;;;;;47.00;30.23;;;1.80;99.90;;;;;;4986623;28;20501;-54
2021/12/12 10:30:14;;;;;;;55.85;32.72;;;1.80;99.90;;;;;;4997778;28;20222;-49
2021/12/12 10:32:54;;;;;;;52.58;29.73;;;1.80;99.90;;;;;;4982868;28;20273;-52
2021/12/12 10:35:34;;;;;;;54.65;30.83;;;1.80;99.90;;;;;;4981234;28;20513;-54
2021/12/12 10:38:08;;;;;;;51.88;29.63;;;1.70;99.90;;;;;;4981511;28;20205;-50
2021/12/12 10:40:44;;;;;;;48.40;29.80;;;1.80;99.90;;;;;;4986575;28;20261;-52
2021/12/12 10:43:19;;;;;;;42.50;26.48;;;2.00;99.90;;;;;;4995645;28;20228;-51
2021/12/12 10:46:09;;;;;;;48.03;25.63;;;2.20;99.90;;;;;;5000764;28;20194;-53
2021/12/12 10:48:55;;;;;;;43.20;23.30;;;2.40;99.90;;;;;;4995732;28;20515;-53
2021/12/12 10:51:24;;;;;;;37.03;22.98;;;2.50;99.90;;;;;;5003476;28;20233;-53
2021/12/12 10:54:13;;;;;;;39.70;23.27;;;2.60;99.90;;;;;;5004093;28;20583;-51
2021/12/12 10:56:46;;;;;;;37.40;25.52;;;2.80;99.90;;;;;;5002416;28;20201;-53
2021/12/12 10:59:31;;;;;;;48.78;22.90;;;3.00;99.90;;;;;;5003819;28;20411;-53
2021/12/12 11:02:03;;;;;;;32.50;19.67;;;3.00;99.90;;;;;;5003270;28;20459;-51
2021/12/12 11:04:38;;;;;;;35.72;20.48;;;3.00;99.90;;;;;;5003767;28;20204;-53
2021/12/12 11:07:11;;;;;;;32.60;21.55;;;3.20;99.90;;;;;;5003262;28;20512;-52
2021/12/12 11:09:38;;;;;;;28.67;20.25;;;3.30;99.90;;;;;;5003563;28;20197;-54
2021/12/12 11:12:26;;;;;;;29.70;19.65;;;3.30;99.90;;;;;;5003337;28;20567;-51
2021/12/12 11:15:27;;;;;;;31.05;18.60;;;3.40;99.90;;;;;;4997036;28;20226;-53
2021/12/12 11:18:12;;;;;;;24.67;17.42;;;3.40;99.90;;;;;;4989811;28;20353;-52
2021/12/12 11:21:03;;;;;;;22.45;16.15;;;3.70;99.90;;;;;;4989500;28;20221;-52
2021/12/12 11:23:53;;;;;;;26.83;16.52;;;3.80;99.90;;;;;;4990832;28;20198;-51
2021/12/12 11:26:43;;;;;;;26.73;17.95;;;3.80;99.90;;;;;;4990915;28;20199;-56
2021/12/12 11:29:22;;;;;;;22.00;14.55;;;3.70;99.90;;;;;;4987063;28;20493;-54
2021/12/12 11:31:56;;;;;;;21.70;13.93;;;3.60;99.90;;;;;;4990187;28;20329;-58
2021/12/12 11:34:47;;;;;;;23.02;13.13;;;3.60;99.90;;;;;;4994515;28;20225;-54
2021/12/12 11:37:39;;;;;;;20.05;12.80;;;3.40;99.90;;;;;;4988353;28;20560;-53
2021/12/12 11:40:13;;;;;;;23.05;15.40;;;3.30;99.90;;;;;;4999189;28;20228;-57
2021/12/12 11:43:17;;;;;;;15.80;11.35;;;3.70;99.90;;;;;;4984496;28;20623;-54
2021/12/12 11:45:57;;;;;;;24.27;14.77;;;4.00;99.90;;;;;;4983993;28;20223;-55
2021/12/12 11:48:57;;;;;;;17.08;12.77;;;4.30;99.90;;;;;;4993743;28;20204;-52
2021/12/12 11:51:42;;;;;;;21.92;14.35;;;4.80;99.90;;;;;;5001363;28;20218;-54
2021/12/12 11:54:42;;;;;;;25.90;14.27;;;5.30;99.90;;;;;;4990281;28;20513;-54
2021/12/12 11:57:19;;;;;;;16.98;12.60;;;5.40;99.90;;;;;;4983160;28;20204;-55
2021/12/12 12:00:08;;;;;;;20.25;13.10;;;5.40;99.90;;;;;;4983540;28;20257;-54
2021/12/12 12:03:12;;;;;;;21.52;15.23;;;5.40;99.90;;;;;;4982875;28;20267;-54
2021/12/12 12:05:58;;;;;;;23.33;14.73;;;5.60;99.90;;;;;;4983428;28;20371;-55
2021/12/12 12:08:46;;;;;;;16.92;12.20;;;5.50;99.90;;;;;;4984564;28;20205;-53
2021/12/12 12:11:32;;;;;;;21.58;12.30;;;5.70;99.90;;;;;;4987776;28;20241;-53
2021/12/12 12:14:27;;;;;;;16.40;12.15;;;5.40;99.90;;;;;;4987033;28;20255;-51
2021/12/12 12:17:14;;;;;;;21.55;13.70;;;5.80;99.90;;;;;;4984604;28;20217;-56
2021/12/12 12:19:56;;;;;;;20.00;12.88;;;6.10;99.90;;;;;;4993266;28;20196;-55
2021/12/12 12:23:00;;;;;;;18.80;13.07;;;6.20;99.90;;;;;;5001531;28;20216;-52
2021/12/12 12:28:34;;;;;;;25.33;12.05;;;5.70;99.90;;;;;;4985533;28;20197;-55
2021/12/12 12:31:35;;;;;;;20.73;11.40;;;5.50;99.90;;;;;;5001259;28;20457;-53
2021/12/12 12:34:18;;;;;;;18.10;13.50;;;4.90;99.90;;;;;;5001673;28;20436;-51
2021/12/12 12:37:19;;;;;;;18.40;12.48;;;4.50;99.90;;;;;;5001851;28;20201;-54
2021/12/12 12:40:14;;;;;;;26.67;15.07;;;4.60;99.90;;;;;;5001771;28;20263;-52
2021/12/12 12:43:11;;;;;;;18.83;13.45;;;4.60;99.90;;;;;;5001423;28;20266;-53
2021/12/12 12:46:16;;;;;;;23.48;14.73;;;4.50;99.90;;;;;;5001247;28;20200;-54
2021/12/12 12:49:21;;;;;;;18.38;14.70;;;4.50;99.90;;;;;;5001473;28;20205;-50
2021/12/12 12:52:27;;;;;;;21.92;14.68;;;4.40;99.90;;;;;;4997240;28;20263;-50
2021/12/12 12:55:18;;;;;;;23.55;12.98;;;4.40;99.90;;;;;;4980607;28;20228;-58
2021/12/12 12:57:46;;;;;;;22.05;13.27;;;4.20;99.90;;;;;;5002092;28;20200;-58
2021/12/12 13:00:19;;;;;;;32.50;25.30;;;4.40;99.90;;;;;;5003308;28;20253;-55
2021/12/12 13:03:25;;;;;;;27.67;18.02;;;4.30;99.90;;;;;;4996011;28;20224;-52
2021/12/12 13:06:36;;;;;;;31.50;20.58;;;4.10;99.90;;;;;;4984176;28;20199;-53
2021/12/12 13:09:29;;;;;;;41.38;24.88;;;4.20;99.90;;;;;;4993949;28;20555;-51
2021/12/12 13:12:16;;;;;;;32.67;21.13;;;3.90;99.90;;;;;;4994609;28;20294;-52
2021/12/12 13:15:02;;;;;;;41.97;27.30;;;3.80;99.90;;;;;;4989087;28;20207;-51
2021/12/12 13:17:44;;;;;;;34.00;25.60;;;3.90;99.90;;;;;;4993450;28;20283;-55
2021/12/12 13:20:32;;;;;;;44.42;27.70;;;3.90;99.90;;;;;;5000286;28;20213;-56
2021/12/12 13:23:20;;;;;;;52.85;34.53;;;3.70;99.90;;;;;;5000133;28;20294;-51
2021/12/12 13:25:57;;;;;;;37.08;23.17;;;3.50;99.90;;;;;;5001163;28;20500;-56
2021/12/12 13:28:34;;;;;;;54.13;32.50;;;3.40;99.90;;;;;;4988386;28;20199;-52
2021/12/12 13:31:27;;;;;;;47.08;28.77;;;3.20;99.90;;;;;;5003018;28;20209;-53
2021/12/12 13:34:03;;;;;;;52.25;29.58;;;3.30;99.90;;;;;;5000559;28;20210;-52
2021/12/12 13:36:54;;;;;;;52.90;28.60;;;3.70;99.90;;;;;;4999574;28;20213;-54
2021/12/12 13:39:56;;;;;;;41.42;26.88;;;3.70;99.90;;;;;;4998433;28;20252;-54
2021/12/12 13:42:26;;;;;;;43.53;27.13;;;3.80;99.90;;;;;;4997964;28;20250;-50
2021/12/12 13:45:06;;;;;;;50.60;27.15;;;3.80;99.90;;;;;;4994419;28;20206;-55